sensor_id;sensor_type;location;lat;lon;timestamp;pressure;altitude;pressure_sealevel;temperature;humidity
9325;BME280;4701;51.566;6.776;2023-01-26T07:02:50;102097.06;;;-1.76;100.00
9325;BME280;4701;51.566;6.776;2023-01-26T07:04:52;102101.63;;;-1.68;100.00
9325;BME280;4701;51.566;6.776;2023-01-26T07:06:54;102106.53;;;-1.64;100.00
9325;BME280;4701;51.566;6.776;2023-01-26T07:08:56;102105.53;;;-1.63;100.00
9325;BME280;4701;51.566;6.776;2023-01-26T07:10:58;102105.59;;;-1.55;100.00
9325;BME280;4701;51.566;6.776;2023-01-26T07:12:59;102106.13;;;-1.51;100.00
9325;BME280;4701;51.566;6.776;2023-01-26T07:15:01;102105.34;;;-1.43;100.00
9325;BME280;4701;51.566;6.776;2023-01-26T07:17:03;102111.94;;;-1.38;100.00
9325;BME280;4701;51.566;6.776;2023-01-26T07:19:07;102110.59;;;-1.34;100.00
9325;BME280;4701;51.566;6.776;2023-01-26T07:21:10;102112.00;;;-1.30;100.00
9325;BME280;4701;51.566;6.776;2023-01-26T07:23:13;102109.09;;;-1.36;100.00
9325;BME280;4701;51.566;6.776;2023-01-26T07:25:14;102113.28;;;-1.34;100.00
9325;BME280;4701;51.566;6.776;2023-01-26T07:27:16;102112.13;;;-1.31;100.00
9325;BME280;4701;51.566;6.776;2023-01-26T07:29:18;102102.78;;;-1.27;100.00
9325;BME280;4701;51.566;6.776;2023-01-26T07:31:20;102100.97;;;-1.27;100.00
9325;BME280;4701;51.566;6.776;2023-01-26T07:33:22;102106.88;;;-1.41;100.00
9325;BME280;4701;51.566;6.776;2023-01-26T07:35:25;102105.25;;;-1.34;100.00
9325;BME280;4701;51.566;6.776;2023-01-26T07:37:29;102114.34;;;-1.27;100.00
9325;BME280;4701;51.566;6.776;2023-01-26T07:39:31;102113.72;;;-1.21;100.00
9325;BME280;4701;51.566;6.776;2023-01-26T07:41:33;102109.56;;;-1.15;100.00
9325;BME280;4701;51.566;6.776;2023-01-26T07:43:42;102111.56;;;-1.17;100.00
9325;BME280;4701;51.566;6.776;2023-01-26T07:45:44;102108.88;;;-1.17;100.00
9325;BME280;4701;51.566;6.776;2023-01-26T07:47:46;102109.88;;;-1.18;100.00
9325;BME280;4701;51.566;6.776;2023-01-26T07:49:48;102113.41;;;-1.18;100.00
9325;BME280;4701;51.566;6.776;2023-01-26T07:51:51;102118.91;;;-1.19;100.00
9325;BME280;4701;51.566;6.776;2023-01-26T07:53:53;102117.56;;;-1.23;100.00
9325;BME280;4701;51.566;6.776;2023-01-26T07:56:05;102124.25;;;-1.19;100.00
9325;BME280;4701;51.566;6.776;2023-01-26T07:58:07;102121.44;;;-1.18;100.00
9325;BME280;4701;51.566;6.776;2023-01-26T08:00:10;102125.47;;;-1.13;100.00
9325;BME280;4701;51.566;6.776;2023-01-26T08:02:15;102129.59;;;-1.19;100.00
9325;BME280;4701;51.566;6.776;2023-01-26T08:04:16;102124.59;;;-1.22;100.00
9325;BME280;4701;51.566;6.776;2023-01-26T08:06:19;102126.25;;;-1.21;100.00
9325;BME280;4701;51.566;6.776;2023-01-26T08:08:22;102131.28;;;-1.18;100.00
9325;BME280;4701;51.566;6.776;2023-01-26T08:10:24;102131.97;;;-1.16;100.00
9325;BME280;4701;51.566;6.776;2023-01-26T08:12:27;102128.94;;;-1.21;100.00
9325;BME280;4701;51.566;6.776;2023-01-26T08:14:29;102130.28;;;-1.17;100.00
9325;BME280;4701;51.566;6.776;2023-01-26T08:16:31;102129.50;;;-1.09;100.00
9325;BME280;4701;51.566;6.776;2023-01-26T08:18:33;102142.44;;;-1.05;100.00
9325;BME280;4701;51.566;6.776;2023-01-26T08:20:34;102131.94;;;-0.98;100.00
9325;BME280;4701;51.566;6.776;2023-01-26T08:22:36;102128.81;;;-0.94;100.00
9325;BME280;4701;51.566;6.776;2023-01-26T08:24:39;102133.47;;;-0.96;100.00
9325;BME280;4701;51.566;6.776;2023-01-26T08:26:41;102120.59;;;-0.92;100.00
9325;BME280;4701;51.566;6.776;2023-01-26T08:28:43;102119.97;;;-0.86;100.00
9325;BME280;4701;51.566;6.776;2023-01-26T08:30:45;102127.00;;;-0.85;100.00
9325;BME280;4701;51.566;6.776;2023-01-26T08:32:47;102132.19;;;-0.84;100.00
9325;BME280;4701;51.566;6.776;2023-01-26T08:34:49;102128.56;;;-0.74;100.00
9325;BME280;4701;51.566;6.776;2023-01-26T08:36:51;102127.56;;;-0.73;100.00
9325;BME280;4701;51.566;6.776;2023-01-26T08:38:53;102134.78;;;-0.66;100.00
9325;BME280;4701;51.566;6.776;2023-01-26T08:40:56;102129.41;;;-0.74;100.00
9325;BME280;4701;51.566;6.776;2023-01-26T08:43:01;102131.44;;;-0.68;100.00
9325;BME280;4701;51.566;6.776;2023-01-26T08:45:04;102129.28;;;-0.64;100.00
9325;BME280;4701;51.566;6.776;2023-01-26T08:47:06;102126.88;;;-0.76;100.00
9325;BME280;4701;51.566;6.776;2023-01-26T08:49:08;102135.75;;;-0.75;100.00
9325;BME280;4701;51.566;6.776;2023-01-26T08:51:10;102132.06;;;-0.74;100.00
9325;BME280;4701;51.566;6.776;2023-01-26T08:53:12;102138.75;;;-0.78;100.00
9325;BME280;4701;51.566;6.776;2023-01-26T08:55:14;102135.13;;;-0.69;100.00
9325;BME280;4701;51.566;6.776;2023-01-26T08:57:17;102140.66;;;-0.70;100.00
9325;BME280;4701;51.566;6.776;2023-01-26T08:59:19;102140.25;;;-0.76;100.00
9325;BME280;4701;51.566;6.776;2023-01-26T09:01:21;102132.41;;;-0.77;100.00
9325;BME280;4701;51.566;6.776;2023-01-26T09:03:23;102135.78;;;-0.67;100.00
9325;BME280;4701;51.566;6.776;2023-01-26T09:05:25;102138.47;;;-0.67;100.00
9325;BME280;4701;51.566;6.776;2023-01-26T09:07:27;102138.31;;;-0.65;100.00
9325;BME280;4701;51.566;6.776;2023-01-26T09:09:29;102139.53;;;-0.60;100.00
9325;BME280;4701;51.566;6.776;2023-01-26T09:11:31;102140.34;;;-0.59;100.00
9325;BME280;4701;51.566;6.776;2023-01-26T09:13:34;102149.56;;;-0.62;100.00
9325;BME280;4701;51.566;6.776;2023-01-26T09:15:38;102145.56;;;-0.58;100.00
9325;BME280;4701;51.566;6.776;2023-01-26T09:17:40;102145.69;;;-0.59;100.00
9325;BME280;4701;51.566;6.776;2023-01-26T09:19:42;102152.78;;;-0.50;100.00
9325;BME280;4701;51.566;6.776;2023-01-26T09:21:44;102152.63;;;-0.49;100.00
9325;BME280;4701;51.566;6.776;2023-01-26T09:23:46;102148.69;;;-0.36;100.00
9325;BME280;4701;51.566;6.776;2023-01-26T09:25:51;102143.63;;;-0.40;100.00
9325;BME280;4701;51.566;6.776;2023-01-26T09:27:53;102150.97;;;-0.42;100.00
9325;BME280;4701;51.566;6.776;2023-01-26T09:29:57;102150.31;;;-0.44;100.00
9325;BME280;4701;51.566;6.776;2023-01-26T09:31:59;102154.84;;;-0.44;100.00
9325;BME280;4701;51.566;6.776;2023-01-26T09:34:00;102156.84;;;-0.46;100.00
9325;BME280;4701;51.566;6.776;2023-01-26T09:36:03;102164.34;;;-0.50;100.00
9325;BME280;4701;51.566;6.776;2023-01-26T09:38:06;102160.81;;;-0.50;100.00
9325;BME280;4701;51.566;6.776;2023-01-26T09:40:15;102156.00;;;-0.47;100.00
9325;BME280;4701;51.566;6.776;2023-01-26T09:42:34;102155.19;;;-0.39;100.00
9325;BME280;4701;51.566;6.776;2023-01-26T09:44:43;102162.56;;;-0.33;100.00
9325;BME280;4701;51.566;6.776;2023-01-26T09:46:57;102157.25;;;-0.25;100.00
9325;BME280;4701;51.566;6.776;2023-01-26T09:49:05;102159.66;;;-0.14;100.00
9325;BME280;4701;51.566;6.776;2023-01-26T09:51:10;102153.28;;;-0.13;100.00
9325;BME280;4701;51.566;6.776;2023-01-26T09:53:15;102159.97;;;-0.17;100.00
9325;BME280;4701;51.566;6.776;2023-01-26T09:55:22;102149.75;;;-0.13;100.00
9325;BME280;4701;51.566;6.776;2023-01-26T09:57:28;102151.78;;;-0.07;100.00
9325;BME280;4701;51.566;6.776;2023-01-26T09:59:39;102158.00;;;-0.07;100.00
9325;BME280;4701;51.566;6.776;2023-01-26T10:01:50;102149.47;;;-0.02;100.00
9325;BME280;4701;51.566;6.776;2023-01-26T10:04:00;102154.16;;;-0.04;100.00
9325;BME280;4701;51.566;6.776;2023-01-26T10:06:12;102146.94;;;-0.04;100.00
9325;BME280;4701;51.566;6.776;2023-01-26T10:08:34;102144.59;;;-0.07;100.00
9325;BME280;4701;51.566;6.776;2023-01-26T10:10:39;102137.53;;;-0.16;100.00
9325;BME280;4701;51.566;6.776;2023-01-26T10:12:42;102132.84;;;-0.14;100.00
9325;BME280;4701;51.566;6.776;2023-01-26T10:14:47;102144.28;;;-0.04;100.00
9325;BME280;4701;51.566;6.776;2023-01-26T10:16:52;102136.25;;;0.05;100.00
9325;BME280;4701;51.566;6.776;2023-01-26T10:18:59;102136.41;;;0.03;100.00
9325;BME280;4701;51.566;6.776;2023-01-26T10:21:05;102138.09;;;0.04;100.00
9325;BME280;4701;51.566;6.776;2023-01-26T10:23:12;102133.91;;;0.10;100.00
9325;BME280;4701;51.566;6.776;2023-01-26T10:25:18;102131.91;;;0.12;100.00
9325;BME280;4701;51.566;6.776;2023-01-26T10:27:21;102135.44;;;0.12;100.00
9325;BME280;4701;51.566;6.776;2023-01-26T10:29:23;102131.91;;;0.12;100.00
9325;BME280;4701;51.566;6.776;2023-01-26T10:31:27;102132.75;;;0.12;100.00
9325;BME280;4701;51.566;6.776;2023-01-26T10:33:31;102136.25;;;0.05;100.00
9325;BME280;4701;51.566;6.776;2023-01-26T10:35:35;102131.22;;;0.02;100.00
9325;BME280;4701;51.566;6.776;2023-01-26T10:37:37;102128.88;;;-0.02;100.00
9325;BME280;4701;51.566;6.776;2023-01-26T10:39:55;102128.38;;;0.11;100.00
9325;BME280;4701;51.566;6.776;2023-01-26T10:41:59;102128.72;;;0.08;100.00
9325;BME280;4701;51.566;6.776;2023-01-26T10:44:10;102129.03;;;0.05;100.00
9325;BME280;4701;51.566;6.776;2023-01-26T10:46:30;102134.41;;;0.05;100.00
9325;BME280;4701;51.566;6.776;2023-01-26T10:48:32;102127.88;;;0.08;100.00
9325;BME280;4701;51.566;6.776;2023-01-26T10:50:36;102135.09;;;0.07;100.00
9325;BME280;4701;51.566;6.776;2023-01-26T10:52:38;102127.38;;;0.04;100.00
9325;BME280;4701;51.566;6.776;2023-01-26T10:55:09;102122.31;;;0.01;100.00
9325;BME280;4701;51.566;6.776;2023-01-26T10:57:22;102130.88;;;-0.04;100.00
9325;BME280;4701;51.566;6.776;2023-01-26T10:59:30;102125.97;;;-0.08;100.00
9325;BME280;4701;51.566;6.776;2023-01-26T11:01:50;102124.50;;;-0.03;100.00
9325;BME280;4701;51.566;6.776;2023-01-26T11:04:00;102122.69;;;0.14;100.00
9325;BME280;4701;51.566;6.776;2023-01-26T11:06:07;102117.28;;;-0.10;100.00
9325;BME280;4701;51.566;6.776;2023-01-26T11:08:31;102115.97;;;0.02;100.00
9325;BME280;4701;51.566;6.776;2023-01-26T11:10:36;102116.31;;;-0.01;100.00
9325;BME280;4701;51.566;6.776;2023-01-26T11:12:38;102109.59;;;0.03;100.00
9325;BME280;4701;51.566;6.776;2023-01-26T11:14:39;102108.75;;;0.03;100.00
9325;BME280;4701;51.566;6.776;2023-01-26T11:16:48;102112.13;;;0.13;100.00
9325;BME280;4701;51.566;6.776;2023-01-26T11:18:55;102109.78;;;0.18;100.00
9325;BME280;4701;51.566;6.776;2023-01-26T11:21:02;102098.59;;;0.22;100.00
9325;BME280;4701;51.566;6.776;2023-01-26T11:23:13;102112.00;;;0.22;100.00
9325;BME280;4701;51.566;6.776;2023-01-26T11:25:24;102105.63;;;0.23;100.00
9325;BME280;4701;51.566;6.776;2023-01-26T11:27:35;102106.31;;;0.25;100.00
9325;BME280;4701;51.566;6.776;2023-01-26T11:29:52;102103.09;;;0.30;100.00
9325;BME280;4701;51.566;6.776;2023-01-26T11:32:01;102104.78;;;0.39;100.00
9325;BME280;4701;51.566;6.776;2023-01-26T11:34:21;102106.13;;;0.35;100.00
9325;BME280;4701;51.566;6.776;2023-01-26T11:36:32;102105.63;;;0.23;100.00
9325;BME280;4701;51.566;6.776;2023-01-26T11:38:42;102114.00;;;0.20;100.00
9325;BME280;4701;51.566;6.776;2023-01-26T11:40:49;102109.78;;;0.26;100.00
9325;BME280;4701;51.566;6.776;2023-01-26T11:45:32;102104.25;;;0.19;100.00
9325;BME280;4701;51.566;6.776;2023-01-26T11:47:47;102101.59;;;0.19;100.00
9325;BME280;4701;51.566;6.776;2023-01-26T11:50:06;102101.25;;;0.14;100.00
9325;BME280;4701;51.566;6.776;2023-01-26T11:52:19;102105.47;;;0.25;100.00
9325;BME280;4701;51.566;6.776;2023-01-26T11:54:43;102095.22;;;0.20;100.00
9325;BME280;4701;51.566;6.776;2023-01-26T11:56:56;102094.75;;;0.25;100.00
9325;BME280;4701;51.566;6.776;2023-01-26T11:59:09;102090.38;;;0.32;100.00
9325;BME280;4701;51.566;6.776;2023-01-26T12:01:17;102088.53;;;0.32;100.00
9325;BME280;4701;51.566;6.776;2023-01-26T12:03:25;102097.75;;;0.30;100.00
9325;BME280;4701;51.566;6.776;2023-01-26T12:05:39;102083.19;;;0.32;100.00
9325;BME280;4701;51.566;6.776;2023-01-26T12:07:48;102081.97;;;0.35;100.00
9325;BME280;4701;51.566;6.776;2023-01-26T12:09:55;102078.47;;;0.43;100.00
9325;BME280;4701;51.566;6.776;2023-01-26T12:12:02;102070.75;;;0.56;100.00
9325;BME280;4701;51.566;6.776;2023-01-26T12:14:19;102066.41;;;0.55;100.00
9325;BME280;4701;51.566;6.776;2023-01-26T12:16:27;102060.34;;;0.53;100.00
9325;BME280;4701;51.566;6.776;2023-01-26T12:18:34;102062.03;;;0.46;100.00
9325;BME280;4701;51.566;6.776;2023-01-26T12:20:39;102064.72;;;0.46;100.00
9325;BME280;4701;51.566;6.776;2023-01-26T12:22:45;102061.56;;;0.50;100.00
9325;BME280;4701;51.566;6.776;2023-01-26T12:24:52;102060.19;;;0.54;100.00
9325;BME280;4701;51.566;6.776;2023-01-26T12:26:56;102060.03;;;0.48;100.00
9325;BME280;4701;51.566;6.776;2023-01-26T12:29:03;102057.50;;;0.46;100.00
9325;BME280;4701;51.566;6.776;2023-01-26T12:31:14;102057.84;;;0.59;100.00
9325;BME280;4701;51.566;6.776;2023-01-26T12:33:18;102051.31;;;0.54;100.00
9325;BME280;4701;51.566;6.776;2023-01-26T12:35:36;102048.97;;;0.51;100.00
9325;BME280;4701;51.566;6.776;2023-01-26T12:37:46;102062.56;;;0.41;100.00
9325;BME280;4701;51.566;6.776;2023-01-26T12:39:59;102050.63;;;0.44;100.00
9325;BME280;4701;51.566;6.776;2023-01-26T12:42:15;102048.13;;;0.50;100.00
9325;BME280;4701;51.566;6.776;2023-01-26T12:44:25;102045.28;;;0.35;100.00
9325;BME280;4701;51.566;6.776;2023-01-26T12:46:33;102049.78;;;0.35;100.00
9325;BME280;4701;51.566;6.776;2023-01-26T12:48:40;102049.63;;;0.36;100.00
9325;BME280;4701;51.566;6.776;2023-01-26T12:50:45;102043.44;;;0.44;100.00
9325;BME280;4701;51.566;6.776;2023-01-26T12:52:51;102042.94;;;0.41;100.00
9325;BME280;4701;51.566;6.776;2023-01-26T12:54:58;102039.25;;;0.42;100.00
9325;BME280;4701;51.566;6.776;2023-01-26T12:57:05;102039.41;;;0.48;100.00
9325;BME280;4701;51.566;6.776;2023-01-26T12:59:14;102039.72;;;0.53;100.00
9325;BME280;4701;51.566;6.776;2023-01-26T13:01:20;102040.56;;;0.54;100.00
9325;BME280;4701;51.566;6.776;2023-01-26T13:03:25;102040.91;;;0.59;100.00
9325;BME280;4701;51.566;6.776;2023-01-26T13:05:31;102026.78;;;0.73;100.00
9325;BME280;4701;51.566;6.776;2023-01-26T13:07:34;102033.16;;;0.80;100.00
9325;BME280;4701;51.566;6.776;2023-01-26T13:09:36;102034.16;;;0.79;100.00
9325;BME280;4701;51.566;6.776;2023-01-26T13:11:44;102035.16;;;0.78;100.00
9325;BME280;4701;51.566;6.776;2023-01-26T13:13:54;102040.50;;;0.86;100.00
9325;BME280;4701;51.566;6.776;2023-01-26T13:16:32;102028.25;;;0.92;100.00
9325;BME280;4701;51.566;6.776;2023-01-26T13:18:47;102027.91;;;0.95;100.00
9325;BME280;4701;51.566;6.776;2023-01-26T13:20:49;102021.03;;;1.00;100.00
9325;BME280;4701;51.566;6.776;2023-01-26T13:22:54;102016.63;;;1.07;100.00
9325;BME280;4701;51.566;6.776;2023-01-26T13:24:57;102019.63;;;1.12;100.00
9325;BME280;4701;51.566;6.776;2023-01-26T13:26:59;102025.66;;;1.14;100.00
9325;BME280;4701;51.566;6.776;2023-01-26T13:29:27;102027.94;;;1.34;100.00
9325;BME280;4701;51.566;6.776;2023-01-26T13:31:33;102019.50;;;1.37;100.00
9325;BME280;4701;51.566;6.776;2023-01-26T13:33:35;102019.50;;;1.37;100.00
9325;BME280;4701;51.566;6.776;2023-01-26T13:35:37;102016.16;;;1.43;100.00
9325;BME280;4701;51.566;6.776;2023-01-26T13:37:43;102015.69;;;1.62;100.00
9325;BME280;4701;51.566;6.776;2023-01-26T13:39:53;102014.50;;;1.65;100.00
9325;BME280;4701;51.566;6.776;2023-01-26T13:41:55;102013.84;;;1.63;100.00
9325;BME280;4701;51.566;6.776;2023-01-26T13:44:05;102014.56;;;1.57;100.00
9325;BME280;4701;51.566;6.776;2023-01-26T13:46:16;102001.41;;;1.62;100.00
9325;BME280;4701;51.566;6.776;2023-01-26T13:48:31;102012.25;;;1.76;100.00
9325;BME280;4701;51.566;6.776;2023-01-26T13:50:36;102004.19;;;1.76;100.00
9325;BME280;4701;51.566;6.776;2023-01-26T13:52:41;102004.84;;;1.78;100.00
9325;BME280;4701;51.566;6.776;2023-01-26T13:54:43;102003.13;;;1.85;100.00
9325;BME280;4701;51.566;6.776;2023-01-26T13:57:00;101997.97;;;1.99;100.00
9325;BME280;4701;51.566;6.776;2023-01-26T13:59:10;101999.63;;;2.22;100.00
9325;BME280;4701;51.566;6.776;2023-01-26T14:01:14;101996.06;;;2.45;100.00
9325;BME280;4701;51.566;6.776;2023-01-26T14:03:21;102005.75;;;2.54;100.00
9325;BME280;4701;51.566;6.776;2023-01-26T14:05:23;102007.69;;;2.60;100.00
9325;BME280;4701;51.566;6.776;2023-01-26T14:07:26;102020.22;;;2.53;100.00
9325;BME280;4701;51.566;6.776;2023-01-26T14:09:30;102018.63;;;2.58;100.00
9325;BME280;4701;51.566;6.776;2023-01-26T14:11:33;102017.81;;;2.58;100.00
9325;BME280;4701;51.566;6.776;2023-01-26T14:13:36;102011.47;;;2.51;100.00
9325;BME280;4701;51.566;6.776;2023-01-26T14:15:38;102023.34;;;2.56;100.00
9325;BME280;4701;51.566;6.776;2023-01-26T14:17:48;102007.00;;;2.43;100.00
9325;BME280;4701;51.566;6.776;2023-01-26T14:19:52;102013.06;;;2.45;100.00
9325;BME280;4701;51.566;6.776;2023-01-26T14:21:55;102023.25;;;2.50;100.00
9325;BME280;4701;51.566;6.776;2023-01-26T14:23:59;102016.38;;;2.47;100.00
9325;BME280;4701;51.566;6.776;2023-01-26T14:26:03;102019.97;;;2.40;100.00
9325;BME280;4701;51.566;6.776;2023-01-26T14:28:12;102023.44;;;2.48;100.00
9325;BME280;4701;51.566;6.776;2023-01-26T14:30:25;102018.78;;;2.42;100.00
9325;BME280;4701;51.566;6.776;2023-01-26T14:32:28;102017.88;;;2.50;100.00
9325;BME280;4701;51.566;6.776;2023-01-26T14:34:31;102019.81;;;2.56;100.00
9325;BME280;4701;51.566;6.776;2023-01-26T14:36:35;102020.41;;;2.66;100.00
9325;BME280;4701;51.566;6.776;2023-01-26T14:38:40;102026.63;;;2.66;100.00
9325;BME280;4701;51.566;6.776;2023-01-26T14:40:46;102028.47;;;2.66;100.00
9325;BME280;4701;51.566;6.776;2023-01-26T14:42:51;102018.03;;;2.71;100.00
9325;BME280;4701;51.566;6.776;2023-01-26T14:44:53;102025.00;;;2.80;100.00
9325;BME280;4701;51.566;6.776;2023-01-26T14:46:59;102027.47;;;2.82;100.00
9325;BME280;4701;51.566;6.776;2023-01-26T14:49:05;102022.22;;;2.88;100.00
9325;BME280;4701;51.566;6.776;2023-01-26T14:51:14;102018.28;;;2.91;100.00
9325;BME280;4701;51.566;6.776;2023-01-26T14:53:21;102023.88;;;3.04;100.00
9325;BME280;4701;51.566;6.776;2023-01-26T14:55:26;102029.09;;;3.06;100.00
9325;BME280;4701;51.566;6.776;2023-01-26T14:57:30;102028.44;;;3.03;100.00
9325;BME280;4701;51.566;6.776;2023-01-26T14:59:34;102025.00;;;3.10;100.00
9325;BME280;4701;51.566;6.776;2023-01-26T15:01:37;102025.91;;;3.17;100.00
9325;BME280;4701;51.566;6.776;2023-01-26T15:03:39;102018.66;;;3.17;100.00
9325;BME280;4701;51.566;6.776;2023-01-26T15:05:42;102014.94;;;3.18;100.00
9325;BME280;4701;51.566;6.776;2023-01-26T15:07:44;102025.06;;;3.16;100.00
9325;BME280;4701;51.566;6.776;2023-01-26T15:09:52;102022.75;;;3.28;100.00
9325;BME280;4701;51.566;6.776;2023-01-26T15:11:56;102023.38;;;3.45;100.00
9325;BME280;4701;51.566;6.776;2023-01-26T15:14:31;102010.19;;;3.71;100.00
9325;BME280;4701;51.566;6.776;2023-01-26T15:16:51;102013.19;;;3.97;100.00
9325;BME280;4701;51.566;6.776;2023-01-26T15:18:57;102007.34;;;4.15;100.00
9325;BME280;4701;51.566;6.776;2023-01-26T15:21:10;102002.00;;;4.22;100.00
9325;BME280;4701;51.566;6.776;2023-01-26T15:23:25;102010.47;;;4.18;100.00
9325;BME280;4701;51.566;6.776;2023-01-26T15:25:30;102021.44;;;4.17;100.00
9325;BME280;4701;51.566;6.776;2023-01-26T15:27:35;102005.59;;;4.07;100.00
9325;BME280;4701;51.566;6.776;2023-01-26T15:29:37;102008.50;;;4.06;100.00
9325;BME280;4701;51.566;6.776;2023-01-26T15:31:40;102007.47;;;4.07;100.00
9325;BME280;4701;51.566;6.776;2023-01-26T15:33:48;102016.41;;;4.07;100.00
9325;BME280;4701;51.566;6.776;2023-01-26T15:35:56;102009.06;;;4.01;100.00
9325;BME280;4701;51.566;6.776;2023-01-26T15:38:00;102004.19;;;3.90;100.00
9325;BME280;4701;51.566;6.776;2023-01-26T15:40:03;102006.78;;;3.84;100.00
9325;BME280;4701;51.566;6.776;2023-01-26T15:42:13;102004.03;;;3.77;100.00
9325;BME280;4701;51.566;6.776;2023-01-26T15:44:17;102002.13;;;3.71;100.00
9325;BME280;4701;51.566;6.776;2023-01-26T15:46:19;102003.50;;;3.67;100.00
9325;BME280;4701;51.566;6.776;2023-01-26T15:48:22;102012.72;;;3.58;100.00
9325;BME280;4701;51.566;6.776;2023-01-26T15:50:24;102009.78;;;3.53;100.00
9325;BME280;4701;51.566;6.776;2023-01-26T15:52:27;102015.34;;;3.51;100.00
9325;BME280;4701;51.566;6.776;2023-01-26T15:54:30;102012.00;;;3.49;100.00
9325;BME280;4701;51.566;6.776;2023-01-26T15:56:32;102014.53;;;3.51;100.00
9325;BME280;4701;51.566;6.776;2023-01-26T15:58:35;102010.38;;;3.48;100.00
9325;BME280;4701;51.566;6.776;2023-01-26T16:00:38;102005.34;;;3.45;100.00
9325;BME280;4701;51.566;6.776;2023-01-26T16:02:40;102013.59;;;3.43;100.00
9325;BME280;4701;51.566;6.776;2023-01-26T16:04:42;102016.88;;;3.39;100.00
9325;BME280;4701;51.566;6.776;2023-01-26T16:06:44;102016.59;;;3.34;100.00
9325;BME280;4701;51.566;6.776;2023-01-26T16:08:46;102019.88;;;3.29;100.00
9325;BME280;4701;51.566;6.776;2023-01-26T16:10:48;102012.16;;;3.26;100.00
9325;BME280;4701;51.566;6.776;2023-01-26T16:12:50;102018.75;;;3.24;100.00
9325;BME280;4701;51.566;6.776;2023-01-26T16:14:53;102016.63;;;3.19;100.00
9325;BME280;4701;51.566;6.776;2023-01-26T16:16:55;102014.28;;;3.16;100.00
9325;BME280;4701;51.566;6.776;2023-01-26T16:18:57;102015.53;;;3.14;100.00
9325;BME280;4701;51.566;6.776;2023-01-26T16:20:59;102022.78;;;3.13;100.00
9325;BME280;4701;51.566;6.776;2023-01-26T16:23:01;102020.69;;;3.15;100.00
9325;BME280;4701;51.566;6.776;2023-01-26T16:25:13;102019.22;;;3.13;100.00
9325;BME280;4701;51.566;6.776;2023-01-26T16:27:17;102018.41;;;3.12;100.00
9325;BME280;4701;51.566;6.776;2023-01-26T16:29:20;102020.91;;;3.14;100.00
9325;BME280;4701;51.566;6.776;2023-01-26T16:31:26;102021.34;;;3.17;100.00
9325;BME280;4701;51.566;6.776;2023-01-26T16:33:29;102020.50;;;3.17;100.00
9325;BME280;4701;51.566;6.776;2023-01-26T16:35:30;102017.38;;;3.13;100.00
9325;BME280;4701;51.566;6.776;2023-01-26T16:37:32;102016.97;;;3.16;100.00
9325;BME280;4701;51.566;6.776;2023-01-26T16:39:34;102011.41;;;3.18;100.00
9325;BME280;4701;51.566;6.776;2023-01-26T16:41:38;102016.81;;;3.18;100.00
9325;BME280;4701;51.566;6.776;2023-01-26T16:43:40;102013.09;;;3.19;100.00
9325;BME280;4701;51.566;6.776;2023-01-26T16:45:43;102016.63;;;3.19;100.00
9325;BME280;4701;51.566;6.776;2023-01-26T16:47:47;102025.53;;;3.20;100.00
9325;BME280;4701;51.566;6.776;2023-01-26T16:49:50;102018.31;;;3.20;100.00
9325;BME280;4701;51.566;6.776;2023-01-26T16:51:51;102025.19;;;3.23;100.00
9325;BME280;4701;51.566;6.776;2023-01-26T16:53:54;102022.66;;;3.21;100.00
9325;BME280;4701;51.566;6.776;2023-01-26T16:55:56;102015.41;;;3.22;100.00
9325;BME280;4701;51.566;6.776;2023-01-26T16:57:58;102019.97;;;3.21;100.00
9325;BME280;4701;51.566;6.776;2023-01-26T17:00:00;102023.69;;;3.20;100.00
9325;BME280;4701;51.566;6.776;2023-01-26T17:02:02;102018.31;;;3.20;100.00
9325;BME280;4701;51.566;6.776;2023-01-26T17:04:06;102012.06;;;3.20;100.00
9325;BME280;4701;51.566;6.776;2023-01-26T17:06:10;102014.78;;;3.20;100.00
9325;BME280;4701;51.566;6.776;2023-01-26T17:08:12;102020.16;;;3.20;100.00
9325;BME280;4701;51.566;6.776;2023-01-26T17:10:15;102016.81;;;3.18;100.00
9325;BME280;4701;51.566;6.776;2023-01-26T17:12:17;102015.31;;;3.15;100.00
9325;BME280;4701;51.566;6.776;2023-01-26T17:14:19;102012.81;;;3.14;100.00
9325;BME280;4701;51.566;6.776;2023-01-26T17:16:23;102014.50;;;3.15;100.00
9325;BME280;4701;51.566;6.776;2023-01-26T17:18:26;102015.31;;;3.15;100.00
9325;BME280;4701;51.566;6.776;2023-01-26T17:20:29;102019.06;;;3.14;100.00
9325;BME280;4701;51.566;6.776;2023-01-26T17:22:31;102022.94;;;3.12;100.00
9325;BME280;4701;51.566;6.776;2023-01-26T17:24:33;102025.81;;;3.10;100.00
9325;BME280;4701;51.566;6.776;2023-01-26T17:26:36;102018.56;;;3.11;100.00
9325;BME280;4701;51.566;6.776;2023-01-26T17:28:37;102012.34;;;3.10;100.00
9325;BME280;4701;51.566;6.776;2023-01-26T17:30:39;102018.56;;;3.11;100.00
9325;BME280;4701;51.566;6.776;2023-01-26T17:32:41;102021.44;;;3.09;100.00
9325;BME280;4701;51.566;6.776;2023-01-26T17:34:44;102019.22;;;3.13;100.00
9325;BME280;4701;51.566;6.776;2023-01-26T17:36:47;102024.63;;;3.13;100.00
9325;BME280;4701;51.566;6.776;2023-01-26T17:38:49;102019.97;;;3.07;100.00
9325;BME280;4701;51.566;6.776;2023-01-26T17:40:53;102027.84;;;3.08;100.00
9325;BME280;4701;51.566;6.776;2023-01-26T17:42:55;102025.00;;;3.10;100.00
9325;BME280;4701;51.566;6.776;2023-01-26T17:44:57;102025.81;;;3.10;100.00
9325;BME280;4701;51.566;6.776;2023-01-26T17:46:59;102024.53;;;3.06;100.00
9325;BME280;4701;51.566;6.776;2023-01-26T17:49:00;102017.56;;;3.12;100.00
9325;BME280;4701;51.566;6.776;2023-01-26T17:51:04;102021.44;;;3.09;100.00
9325;BME280;4701;51.566;6.776;2023-01-26T17:53:07;102014.69;;;3.13;100.00
9325;BME280;4701;51.566;6.776;2023-01-26T17:55:09;102013.00;;;3.12;100.00
9325;BME280;4701;51.566;6.776;2023-01-26T17:57:11;102023.13;;;3.10;100.00
9325;BME280;4701;51.566;6.776;2023-01-26T17:59:14;102019.59;;;3.10;100.00
9325;BME280;4701;51.566;6.776;2023-01-26T18:01:19;102019.59;;;3.10;100.00
9325;BME280;4701;51.566;6.776;2023-01-26T18:03:21;102014.03;;;3.11;100.00
9325;BME280;4701;51.566;6.776;2023-01-26T18:05:25;102025.47;;;3.13;100.00
9325;BME280;4701;51.566;6.776;2023-01-26T18:07:27;102020.91;;;3.14;100.00
9325;BME280;4701;51.566;6.776;2023-01-26T18:09:31;102020.06;;;3.13;100.00
9325;BME280;4701;51.566;6.776;2023-01-26T18:11:32;102019.06;;;3.14;100.00
9325;BME280;4701;51.566;6.776;2023-01-26T18:13:35;102016.81;;;3.18;100.00
9325;BME280;4701;51.566;6.776;2023-01-26T18:15:37;102025.91;;;3.17;100.00